createdAt,value
2018-05-11T00:01:17.118Z,73.33
2018-05-11T00:03:45.439Z,72.93
2018-05-11T00:06:13.852Z,72.95
2018-05-11T00:08:42.157Z,73.19
2018-05-11T00:11:10.550Z,73.06
2018-05-11T00:13:39.122Z,73.12
2018-05-11T00:16:07.469Z,73.01
2018-05-11T00:18:35.777Z,72.84
2018-05-11T00:21:04.511Z,72.78
2018-05-11T00:23:32.867Z,72.94
2018-05-11T00:26:01.230Z,72.94
2018-05-11T00:28:29.674Z,72.62
2018-05-11T00:30:58.031Z,72.59
2018-05-11T00:33:26.389Z,72.59
2018-05-11T00:35:55.106Z,72.60
2018-05-11T00:38:23.408Z,72.39
2018-05-11T00:40:51.704Z,72.65
2018-05-11T00:43:20.040Z,72.17
2018-05-11T00:45:48.357Z,72.30
2018-05-11T00:48:16.681Z,72.26
2018-05-11T00:50:45.173Z,72.22
2018-05-11T00:53:13.477Z,72.15
2018-05-11T00:55:49.789Z,72.09
2018-05-11T00:58:18.099Z,72.34
2018-05-11T01:00:46.467Z,71.90
2018-05-11T01:03:15.152Z,71.70
2018-05-11T01:05:43.461Z,72.31
2018-05-11T01:08:11.810Z,72.16
2018-05-11T01:10:40.448Z,72.59
2018-05-11T01:13:08.772Z,72.83
2018-05-11T01:15:37.107Z,72.96
2018-05-11T01:18:05.609Z,72.58
2018-05-11T01:20:33.941Z,72.67
2018-05-11T01:23:02.292Z,72.89
2018-05-11T01:25:30.894Z,72.87
2018-05-11T01:27:59.563Z,72.95
2018-05-11T01:30:27.905Z,72.83
2018-05-11T01:32:56.292Z,72.89
2018-05-11T01:35:25.464Z,73.21
2018-05-11T01:37:53.815Z,72.84
2018-05-11T01:40:22.182Z,72.62
2018-05-11T01:42:50.907Z,73.31
2018-05-11T01:45:19.232Z,73.40
2018-05-11T01:47:47.942Z,73.51
2018-05-11T01:50:16.254Z,73.17
2018-05-11T01:52:44.602Z,73.19
2018-05-11T01:55:13.322Z,73.14
2018-05-11T01:57:41.657Z,72.96
2018-05-11T02:00:10.026Z,73.03
2018-05-11T02:02:38.403Z,72.57
2018-05-11T02:05:06.775Z,73.11
2018-05-11T02:07:35.132Z,73.22
2018-05-11T02:10:03.549Z,72.97
2018-05-11T02:12:31.975Z,72.66
2018-05-11T02:15:00.335Z,72.83
2018-05-11T02:17:28.935Z,72.57
2018-05-11T02:19:57.301Z,72.92
2018-05-11T02:22:25.695Z,72.97
2018-05-11T02:24:55.224Z,72.48
2018-05-11T02:27:23.559Z,72.64
2018-05-11T02:29:51.907Z,72.70
2018-05-11T02:32:20.247Z,72.71
2018-05-11T02:34:48.592Z,72.80
2018-05-11T02:37:16.906Z,72.77
2018-05-11T02:39:45.522Z,73.20
2018-05-11T02:42:13.829Z,73.00
2018-05-11T02:44:42.129Z,73.07
2018-05-11T02:47:10.614Z,73.44
2018-05-11T02:49:38.939Z,73.07
2018-05-11T02:52:07.238Z,73.11
2018-05-11T02:54:35.602Z,72.67
2018-05-11T02:57:03.939Z,72.83
2018-05-11T02:59:32.531Z,72.76
2018-05-11T03:02:00.891Z,72.71
2018-05-11T03:04:29.221Z,73.23
2018-05-11T03:06:57.559Z,72.95
2018-05-11T03:09:26.373Z,72.63
2018-05-11T03:11:54.720Z,72.38
2018-05-11T03:14:23.021Z,73.13
2018-05-11T03:16:51.599Z,72.96
2018-05-11T03:19:19.983Z,72.74
2018-05-11T03:21:48.304Z,73.17
2018-05-11T03:24:16.853Z,72.86
2018-05-11T03:26:45.164Z,72.64
2018-05-11T03:29:13.476Z,72.40
2018-05-11T03:31:41.914Z,72.08
2018-05-11T03:34:10.233Z,72.17
2018-05-11T03:36:38.530Z,71.98
2018-05-11T03:39:07.096Z,71.98
2018-05-11T03:41:35.560Z,71.96
2018-05-11T03:44:03.943Z,72.20
2018-05-11T03:46:32.295Z,71.94
2018-05-11T03:49:00.623Z,72.13
2018-05-11T03:51:28.991Z,71.83
2018-05-11T03:53:57.594Z,71.74
2018-05-11T03:56:25.975Z,71.98
2018-05-11T03:58:54.333Z,71.79
2018-05-11T04:01:34.466Z,72.36
2018-05-11T04:04:14.815Z,72.03
2018-05-11T04:06:55.223Z,71.92
2018-05-11T04:09:23.552Z,72.13
2018-05-11T04:11:51.859Z,72.13
2018-05-11T04:14:21.468Z,72.49
2018-05-11T04:16:49.804Z,72.64
2018-05-11T04:19:18.105Z,72.55
2018-05-11T04:21:46.482Z,72.62
2018-05-11T04:24:14.799Z,72.71
2018-05-11T04:26:43.142Z,72.79
2018-05-11T04:29:11.605Z,72.73
2018-05-11T04:31:39.915Z,72.91
2018-05-11T04:34:08.253Z,73.23
2018-05-11T04:36:38.073Z,73.13
2018-05-11T04:39:06.391Z,73.02
2018-05-11T04:41:34.746Z,72.82
2018-05-11T04:44:03.225Z,73.07
2018-05-11T04:46:31.613Z,72.86
2018-05-11T04:49:00.008Z,72.78
2018-05-11T04:51:28.582Z,72.79
2018-05-11T04:53:56.936Z,72.53
2018-05-11T04:56:25.249Z,72.66
2018-05-11T04:58:54.029Z,72.63
2018-05-11T05:01:22.364Z,72.77
2018-05-11T05:03:50.701Z,73.07
2018-05-11T05:06:19.041Z,72.77
2018-05-11T05:08:48.318Z,73.08
2018-05-11T05:11:16.625Z,73.21
2018-05-11T05:13:44.998Z,73.35
2018-05-11T05:16:14.251Z,73.69
2018-05-11T05:18:43.495Z,73.21
2018-05-11T05:21:12.060Z,73.32
2018-05-11T05:23:40.386Z,73.34
2018-05-11T05:26:08.708Z,73.23
2018-05-11T05:28:37.233Z,72.74
2018-05-11T05:31:05.573Z,72.90
2018-05-11T05:33:33.981Z,72.98
2018-05-11T05:36:02.356Z,73.02
2018-05-11T05:38:30.717Z,72.48
2018-05-11T05:40:59.110Z,72.82
2018-05-11T05:43:27.497Z,72.84
2018-05-11T05:45:55.934Z,72.78
2018-05-11T05:48:24.256Z,72.62
2018-05-11T05:50:52.599Z,71.84
2018-05-11T05:53:20.929Z,71.66
2018-05-11T05:55:49.303Z,71.87
2018-05-11T05:58:17.644Z,71.99
2018-05-11T06:00:45.955Z,71.65
2018-05-11T06:03:14.295Z,71.54
2018-05-11T06:05:42.633Z,71.46
2018-05-11T06:08:10.972Z,71.53
2018-05-11T06:10:39.264Z,71.58
2018-05-11T06:13:07.998Z,71.96
2018-05-11T06:15:36.360Z,71.82
2018-05-11T06:18:04.817Z,71.38
2018-05-11T06:20:33.186Z,71.23
2018-05-11T06:23:01.591Z,70.72
2018-05-11T06:25:31.279Z,69.84
2018-05-11T06:27:59.662Z,70.25
2018-05-11T06:30:28.013Z,70.42
2018-05-11T06:32:56.498Z,69.88
2018-05-11T06:35:24.869Z,68.97
2018-05-11T06:37:53.177Z,68.84
2018-05-11T06:40:21.518Z,68.70
2018-05-11T06:42:50.109Z,68.52
2018-05-11T06:45:18.419Z,66.75
2018-05-11T06:47:46.760Z,67.34
2018-05-11T06:50:15.123Z,67.72
2018-05-11T06:52:43.451Z,67.81
2018-05-11T06:55:11.751Z,66.84
2018-05-11T06:57:40.197Z,66.66
2018-05-11T07:00:08.465Z,64.57
2018-05-11T07:02:36.863Z,64.51
2018-05-11T07:05:05.224Z,64.13
2018-05-11T07:07:33.772Z,64.31
2018-05-11T07:10:02.081Z,64.26
2018-05-11T07:12:30.607Z,64.44
2018-05-11T07:14:58.985Z,63.65
2018-05-11T07:17:27.418Z,64.60
2018-05-11T07:19:56.106Z,64.68
2018-05-11T07:22:24.428Z,63.73
2018-05-11T07:24:52.749Z,62.69
2018-05-11T07:27:21.342Z,63.64
2018-05-11T07:29:49.667Z,63.25
2018-05-11T07:32:17.989Z,63.10
2018-05-11T07:34:46.791Z,62.01
2018-05-11T07:37:15.089Z,62.33
2018-05-11T07:39:43.499Z,61.61
2018-05-11T07:42:11.991Z,62.42
2018-05-11T07:44:40.379Z,62.52
2018-05-11T07:47:08.737Z,63.19
2018-05-11T07:49:37.262Z,62.29
2018-05-11T07:52:05.597Z,62.02
2018-05-11T07:54:33.995Z,61.90
2018-05-11T07:57:02.785Z,62.23
2018-05-11T07:59:31.222Z,61.98
2018-05-11T08:01:59.552Z,61.37
2018-05-11T08:04:27.927Z,60.82
2018-05-11T08:06:57.260Z,59.85
2018-05-11T08:09:25.620Z,60.11
2018-05-11T08:11:54.193Z,60.60
2018-05-11T08:14:22.613Z,59.19
2018-05-11T08:16:50.790Z,59.07
2018-05-11T08:19:19.150Z,58.23
2018-05-11T08:21:47.480Z,58.04
2018-05-11T08:24:15.805Z,57.61
2018-05-11T08:26:44.160Z,56.35
2018-05-11T08:29:12.478Z,57.44
2018-05-11T08:31:40.796Z,57.81
2018-05-11T08:34:09.842Z,56.84
2018-05-11T08:36:38.228Z,56.98
2018-05-11T08:39:06.606Z,56.92
2018-05-11T08:41:34.999Z,56.39
2018-05-11T08:44:03.388Z,55.33
2018-05-11T08:46:31.917Z,55.44
2018-05-11T08:49:00.548Z,54.33
2018-05-11T08:51:29.014Z,54.13
2018-05-11T08:53:57.380Z,55.07
2018-05-11T08:56:25.963Z,55.27
2018-05-11T08:58:54.293Z,53.12
2018-05-11T09:01:22.681Z,53.29
2018-05-11T09:03:51.029Z,53.83
2018-05-11T09:06:19.323Z,54.10
2018-05-11T09:08:47.706Z,53.83
2018-05-11T09:11:16.098Z,53.47
2018-05-11T09:13:44.349Z,52.25
2018-05-11T09:16:12.690Z,52.85
2018-05-11T09:21:32.698Z,53.74
2018-05-11T09:24:01.230Z,52.61
2018-05-11T09:26:29.800Z,51.35
2018-05-11T09:28:58.286Z,50.73
2018-05-11T09:31:26.734Z,50.12
2018-05-11T09:33:55.210Z,49.54
2018-05-11T09:36:24.464Z,47.15
2018-05-11T09:38:52.790Z,43.69
2018-05-11T09:41:21.098Z,41.59
2018-05-11T09:43:49.883Z,39.86
2018-05-11T09:46:18.225Z,40.60
2018-05-11T09:48:46.613Z,42.30
2018-05-11T09:51:14.937Z,42.26
2018-05-11T09:53:43.262Z,41.59
2018-05-11T09:56:11.571Z,43.99
2018-05-11T09:58:39.998Z,44.08
2018-05-11T10:01:08.329Z,45.29
2018-05-11T10:03:36.652Z,45.85
2018-05-11T10:06:05.209Z,45.26
2018-05-11T10:08:33.545Z,44.82
2018-05-11T10:11:01.942Z,44.47
2018-05-11T10:13:30.404Z,44.02
2018-05-11T10:15:58.813Z,42.22
2018-05-11T10:18:27.428Z,38.25
2018-05-11T10:20:56.442Z,34.29
2018-05-11T10:23:24.733Z,34.52
2018-05-11T10:25:53.033Z,35.72
2018-05-11T10:28:21.450Z,35.98
2018-05-11T10:30:49.766Z,34.78
2018-05-11T10:33:18.077Z,32.42
2018-05-11T10:35:46.433Z,35.03
2018-05-11T10:38:14.741Z,35.33
2018-05-11T10:40:43.053Z,33.37
2018-05-11T10:43:11.417Z,30.90
2018-05-11T10:45:39.729Z,30.34
2018-05-11T10:48:08.075Z,31.43
2018-05-11T10:50:36.580Z,30.08
2018-05-11T10:53:04.929Z,30.06
2018-05-11T10:55:33.316Z,31.16
2018-05-11T10:58:01.925Z,31.34
2018-05-11T11:00:30.361Z,32.35
2018-05-11T11:02:58.681Z,31.36
2018-05-11T11:05:27.278Z,30.64
2018-05-11T11:08:10.730Z,30.62
2018-05-11T11:13:30.289Z,33.68
2018-05-11T11:15:58.565Z,35.65
2018-05-11T11:18:27.217Z,38.75
2018-05-11T11:20:56.146Z,42.11
2018-05-11T11:23:24.558Z,44.27
2018-05-11T11:25:52.915Z,45.94
2018-05-11T11:28:21.246Z,47.18
2018-05-11T11:30:49.852Z,48.51
2018-05-11T11:33:18.135Z,49.41
2018-05-11T11:35:46.745Z,48.74
2018-05-11T11:38:15.045Z,48.52
2018-05-11T11:40:43.357Z,47.39
2018-05-11T11:43:11.715Z,49.31
2018-05-11T11:45:40.014Z,48.67
2018-05-11T11:48:08.340Z,48.93
2018-05-11T11:50:37.105Z,48.40
2018-05-11T11:55:59.078Z,45.73
2018-05-11T11:58:27.455Z,47.09
2018-05-11T12:00:55.909Z,46.67
2018-05-11T12:03:24.286Z,46.25
2018-05-11T12:05:52.622Z,46.83
2018-05-11T12:08:20.917Z,47.41
2018-05-11T12:10:49.364Z,49.65
2018-05-11T12:13:17.686Z,48.73
2018-05-11T12:15:46.086Z,48.72
2018-05-11T12:18:14.384Z,45.08
2018-05-11T12:20:42.696Z,45.04
2018-05-11T12:23:11.007Z,45.25
2018-05-11T12:25:39.361Z,47.84
2018-05-11T12:28:07.719Z,48.13
2018-05-11T12:30:36.162Z,44.80
2018-05-11T12:33:04.571Z,46.01
2018-05-11T12:35:32.966Z,46.55
2018-05-11T12:38:01.366Z,48.23
2018-05-11T12:40:30.559Z,48.38
2018-05-11T12:42:59.117Z,47.92
2018-05-11T12:45:27.491Z,47.21
2018-05-11T12:47:55.864Z,47.33
2018-05-11T12:50:24.218Z,48.68
2018-05-11T12:52:52.584Z,51.26
2018-05-11T12:55:21.612Z,51.24
2018-05-11T12:57:49.913Z,49.35
2018-05-11T13:00:18.233Z,48.12
2018-05-11T13:02:47.440Z,47.19
2018-05-11T13:05:15.778Z,48.22
2018-05-11T13:07:44.093Z,47.10
2018-05-11T13:10:12.433Z,45.77
2018-05-11T13:12:40.785Z,43.90
2018-05-11T13:15:09.093Z,44.20
2018-05-11T13:17:38.008Z,46.47
2018-05-11T13:20:06.326Z,45.86
2018-05-11T13:22:34.622Z,46.34
2018-05-11T13:25:03.670Z,46.94
2018-05-11T13:27:32.025Z,47.34
2018-05-11T13:30:00.498Z,46.15
2018-05-11T13:32:28.895Z,45.64
2018-05-11T13:34:57.503Z,45.14
2018-05-11T13:37:25.845Z,45.81
2018-05-11T13:39:54.644Z,48.22
2018-05-11T13:42:23.089Z,49.83
2018-05-11T13:44:51.420Z,50.01
2018-05-11T13:47:20.326Z,48.15
2018-05-11T13:49:48.654Z,47.81
2018-05-11T13:52:16.994Z,45.05
2018-05-11T13:54:45.494Z,43.71
2018-05-11T13:57:13.795Z,43.92
2018-05-11T13:59:42.128Z,44.50
2018-05-11T14:02:10.551Z,42.92
2018-05-11T14:04:38.948Z,40.66
2018-05-11T14:07:07.305Z,38.39
2018-05-11T14:09:36.386Z,37.19
2018-05-11T14:12:04.796Z,36.20
2018-05-11T14:14:33.254Z,37.89
2018-05-11T14:17:01.807Z,35.84
2018-05-11T14:19:30.149Z,36.43
2018-05-11T14:21:58.621Z,39.48
2018-05-11T14:24:27.123Z,40.28
2018-05-11T14:26:55.613Z,42.15
2018-05-11T14:29:23.913Z,41.85
2018-05-11T14:31:52.321Z,41.78
2018-05-11T14:34:20.725Z,41.82
2018-05-11T14:36:49.026Z,40.52
2018-05-11T14:39:17.422Z,40.15
2018-05-11T14:41:45.841Z,41.36
2018-05-11T14:44:14.223Z,41.30
2018-05-11T14:46:43.383Z,40.18
2018-05-11T14:49:11.703Z,41.04
2018-05-11T14:51:40.015Z,39.99
2018-05-11T14:54:08.639Z,41.07
2018-05-11T14:56:37.008Z,41.19
2018-05-11T14:59:05.402Z,36.85
2018-05-11T15:01:35.690Z,38.13
2018-05-11T15:04:04.927Z,39.05
2018-05-11T15:06:33.359Z,39.85
2018-05-11T15:09:01.838Z,40.10
2018-05-11T15:11:30.226Z,40.68
2018-05-11T15:13:58.697Z,37.78
2018-05-11T15:16:27.819Z,36.05
2018-05-11T15:18:56.198Z,37.70
2018-05-11T15:21:24.548Z,38.46
2018-05-11T15:23:53.148Z,38.97
2018-05-11T15:26:21.499Z,38.50
2018-05-11T15:28:49.782Z,39.89
2018-05-11T15:31:18.282Z,40.97
2018-05-11T15:33:46.554Z,40.35
2018-05-11T15:36:14.921Z,39.06
2018-05-11T15:38:43.298Z,36.69
2018-05-11T15:41:11.631Z,36.48
2018-05-11T15:43:39.967Z,35.42
2018-05-11T15:46:08.449Z,35.90
2018-05-11T15:48:36.816Z,36.68
2018-05-11T15:51:05.269Z,35.64
2018-05-11T15:53:33.931Z,38.04
2018-05-11T15:56:02.337Z,40.65
2018-05-11T15:58:31.966Z,41.43
2018-05-11T16:01:00.987Z,42.74
2018-05-11T16:03:29.764Z,42.47
2018-05-11T16:05:58.415Z,42.48
2018-05-11T16:08:27.901Z,43.84
2018-05-11T16:10:56.816Z,43.11
2018-05-11T16:13:25.218Z,42.50
2018-05-11T16:15:53.942Z,41.74
2018-05-11T16:18:22.262Z,41.35
2018-05-11T16:20:50.623Z,42.24
2018-05-11T16:23:19.326Z,42.63
2018-05-11T16:25:47.619Z,43.70
2018-05-11T16:28:15.964Z,46.45
2018-05-11T16:30:44.277Z,47.75
2018-05-11T16:33:12.581Z,47.69
2018-05-11T16:35:40.984Z,48.10
2018-05-11T16:38:09.297Z,47.97
2018-05-11T16:40:37.721Z,47.59
2018-05-11T16:43:06.110Z,46.48
2018-05-11T16:45:34.854Z,46.51
2018-05-11T16:48:03.444Z,46.61
2018-05-11T16:50:31.797Z,47.16
2018-05-11T16:53:01.201Z,47.24
2018-05-11T16:55:29.683Z,47.57
2018-05-11T16:57:58.077Z,48.21
2018-05-11T17:00:27.287Z,47.81
2018-05-11T17:02:56.027Z,48.23
2018-05-11T17:05:24.353Z,48.45
2018-05-11T17:07:54.464Z,48.94
2018-05-11T17:10:23.839Z,49.48
2018-05-11T17:12:52.212Z,49.22
2018-05-11T17:15:20.848Z,49.19
2018-05-11T17:17:49.367Z,49.76
2018-05-11T17:20:17.672Z,49.84
2018-05-11T17:22:46.904Z,50.08
2018-05-11T17:25:15.389Z,50.45
2018-05-11T17:27:43.728Z,50.40
2018-05-11T17:30:12.094Z,50.27
2018-05-11T17:32:40.470Z,50.22
2018-05-11T17:35:09.716Z,49.79
2018-05-11T17:37:38.565Z,49.26
2018-05-11T17:40:07.363Z,49.53
2018-05-11T17:42:35.979Z,49.71
2018-05-11T17:45:04.415Z,49.97
2018-05-11T17:47:32.782Z,49.48
2018-05-11T17:50:01.240Z,49.84
2018-05-11T17:52:30.592Z,49.76
2018-05-11T17:54:59.189Z,49.74
2018-05-11T17:57:27.701Z,49.41
2018-05-11T17:59:56.593Z,48.88
2018-05-11T18:02:25.012Z,48.70
2018-05-11T18:04:53.330Z,48.08
2018-05-11T18:07:22.688Z,47.65
2018-05-11T18:09:51.180Z,48.03
2018-05-11T18:12:19.674Z,47.34
2018-05-11T18:14:48.656Z,47.11
2018-05-11T18:17:16.982Z,47.28
2018-05-11T18:19:45.281Z,47.53
2018-05-11T18:22:14.501Z,47.93
2018-05-11T18:24:42.894Z,49.00
2018-05-11T18:27:11.300Z,49.17
2018-05-11T18:29:40.057Z,49.71
2018-05-11T18:32:08.387Z,50.32
2018-05-11T18:34:36.751Z,50.78
2018-05-11T18:37:05.254Z,50.72
2018-05-11T18:39:33.750Z,51.24
2018-05-11T18:42:04.926Z,51.91
2018-05-11T18:44:35.182Z,51.71
2018-05-11T18:47:03.885Z,52.09
2018-05-11T18:49:32.258Z,52.39
2018-05-11T18:52:00.850Z,52.27
2018-05-11T18:54:29.695Z,51.83
2018-05-11T18:56:57.899Z,52.18
2018-05-11T18:59:26.496Z,52.64
2018-05-11T19:01:54.885Z,52.42
2018-05-11T19:04:23.269Z,52.88
2018-05-11T19:06:51.765Z,53.00
2018-05-11T19:09:20.174Z,53.26
2018-05-11T19:11:48.617Z,53.62
2018-05-11T19:14:17.662Z,53.80
2018-05-11T19:16:45.954Z,54.42
2018-05-11T19:19:14.277Z,54.40
2018-05-11T19:21:42.616Z,54.05
2018-05-11T19:24:10.950Z,54.56
2018-05-11T19:26:39.283Z,54.68
2018-05-11T19:29:08.829Z,54.81
2018-05-11T19:31:37.720Z,54.88
2018-05-11T19:34:06.206Z,54.68
2018-05-11T19:36:35.300Z,54.89
2018-05-11T19:39:03.832Z,54.33
2018-05-11T19:41:32.187Z,54.43
2018-05-11T19:44:02.744Z,53.62
2018-05-11T19:46:31.123Z,53.11
2018-05-11T19:48:59.526Z,53.13
2018-05-11T19:51:28.092Z,53.40
2018-05-11T19:53:56.673Z,53.40
2018-05-11T19:56:24.994Z,52.50
2018-05-11T19:58:53.492Z,52.49
2018-05-11T20:01:21.830Z,52.92
2018-05-11T20:03:50.304Z,52.63
2018-05-11T20:06:19.458Z,52.87
2018-05-11T20:08:47.811Z,52.87
2018-05-11T20:11:16.232Z,52.67
2018-05-11T20:13:46.674Z,52.29
2018-05-11T20:16:15.040Z,52.50
2018-05-11T20:18:43.380Z,52.83
2018-05-11T20:21:11.966Z,52.44
2018-05-11T20:23:40.353Z,51.58
2018-05-11T20:26:08.652Z,51.75
2018-05-11T20:28:37.363Z,51.49
2018-05-11T20:31:05.785Z,51.23
2018-05-11T20:33:34.211Z,52.12
2018-05-11T20:36:03.142Z,51.22
2018-05-11T20:38:31.532Z,51.06
2018-05-11T20:41:00.029Z,50.83
2018-05-11T20:43:29.050Z,50.95
2018-05-11T20:45:57.635Z,51.58
2018-05-11T20:48:26.091Z,51.68
2018-05-11T20:50:54.681Z,52.18
2018-05-11T20:53:23.043Z,52.19
2018-05-11T20:55:51.418Z,52.00
2018-05-11T20:58:20.267Z,52.08
2018-05-11T21:00:48.615Z,52.07
2018-05-11T21:03:16.999Z,51.60
2018-05-11T21:05:45.704Z,51.83
2018-05-11T21:08:14.041Z,51.83
2018-05-11T21:10:42.374Z,52.49
2018-05-11T21:13:10.729Z,52.16
2018-05-11T21:15:39.050Z,52.27
2018-05-11T21:18:07.426Z,52.13
2018-05-11T21:20:35.856Z,51.88
2018-05-11T21:23:04.412Z,52.38
2018-05-11T21:25:33.014Z,52.72
2018-05-11T21:28:01.487Z,52.30
2018-05-11T21:30:29.951Z,52.25
2018-05-11T21:32:58.340Z,51.52
2018-05-11T21:35:26.849Z,52.17
2018-05-11T21:37:55.211Z,52.01
2018-05-11T21:40:23.531Z,51.51
2018-05-11T21:42:52.402Z,51.79
2018-05-11T21:45:20.700Z,51.72
2018-05-11T21:47:49.014Z,51.70
2018-05-11T21:50:17.453Z,51.62
2018-05-11T21:52:45.788Z,51.72
2018-05-11T21:55:14.127Z,51.54
2018-05-11T21:57:42.460Z,51.64
2018-05-11T22:00:10.768Z,50.67
2018-05-11T22:02:39.109Z,51.66
2018-05-11T22:05:08.105Z,51.75
2018-05-11T22:07:36.517Z,51.63
2018-05-11T22:10:04.878Z,51.64
2018-05-11T22:12:33.245Z,51.63
2018-05-11T22:15:01.718Z,51.74
2018-05-11T22:17:30.123Z,52.33
2018-05-11T22:20:00.423Z,52.06
2018-05-11T22:22:28.792Z,52.21
2018-05-11T22:24:57.133Z,52.37
2018-05-11T22:27:25.688Z,52.95
2018-05-11T22:29:54.068Z,53.19
2018-05-11T22:32:22.429Z,53.33
2018-05-11T22:34:50.754Z,53.70
2018-05-11T22:37:21.127Z,53.93
2018-05-11T22:39:49.494Z,53.81
2018-05-11T22:42:17.832Z,53.64
2018-05-11T22:44:52.419Z,54.35
2018-05-11T22:47:20.874Z,54.79
2018-05-11T22:49:49.181Z,54.86
2018-05-11T22:52:17.529Z,55.13
2018-05-11T22:54:46.159Z,55.56
2018-05-11T22:57:14.515Z,55.83
2018-05-11T22:59:42.869Z,56.14
2018-05-11T23:02:12.422Z,55.75
2018-05-11T23:04:40.791Z,56.01
2018-05-11T23:07:09.340Z,55.88
2018-05-11T23:09:37.675Z,55.93
2018-05-11T23:12:06.049Z,56.19
2018-05-11T23:14:34.417Z,56.35
2018-05-11T23:17:02.878Z,56.45
2018-05-11T23:19:31.202Z,56.53
2018-05-11T23:22:00.351Z,56.35
2018-05-11T23:24:29.362Z,56.44
2018-05-11T23:26:57.723Z,56.51
2018-05-11T23:29:26.630Z,56.81
2018-05-11T23:31:56.138Z,56.67
2018-05-11T23:34:24.847Z,57.17
2018-05-11T23:36:53.355Z,57.26
2018-05-11T23:39:21.834Z,57.88
2018-05-11T23:41:50.161Z,57.35
2018-05-11T23:44:18.531Z,57.05
2018-05-11T23:46:46.891Z,57.33
2018-05-11T23:49:15.241Z,57.80
2018-05-11T23:51:43.577Z,56.96
2018-05-11T23:54:12.105Z,57.45
2018-05-11T23:56:40.450Z,56.91
2018-05-11T23:59:08.833Z,56.80
